sensor_id;sensor_type;location;lat;lon;timestamp;P1;durP1;ratioP1;P2;durP2;ratioP2
40637;SDS011;26336;44.696;10.622;2022-08-23T00:02:34;2.55;;;1.50;;
40637;SDS011;26336;44.696;10.622;2022-08-23T00:05:38;1.80;;;1.63;;
40637;SDS011;26336;44.696;10.622;2022-08-23T00:08:42;2.08;;;1.77;;
40637;SDS011;26336;44.696;10.622;2022-08-23T00:11:49;1.70;;;1.42;;
40637;SDS011;26336;44.696;10.622;2022-08-23T00:14:55;1.65;;;1.55;;
40637;SDS011;26336;44.696;10.622;2022-08-23T00:17:59;2.38;;;1.63;;
40637;SDS011;26336;44.696;10.622;2022-08-23T00:21:03;1.75;;;1.58;;
40637;SDS011;26336;44.696;10.622;2022-08-23T00:24:07;1.65;;;1.55;;
40637;SDS011;26336;44.696;10.622;2022-08-23T00:27:15;3.95;;;2.30;;
40637;SDS011;26336;44.696;10.622;2022-08-23T00:30:19;1.95;;;1.65;;
40637;SDS011;26336;44.696;10.622;2022-08-23T00:33:25;4.25;;;1.90;;
40637;SDS011;26336;44.696;10.622;2022-08-23T00:36:28;4.13;;;1.83;;
40637;SDS011;26336;44.696;10.622;2022-08-23T00:39:33;2.60;;;1.42;;
40637;SDS011;26336;44.696;10.622;2022-08-23T00:42:46;2.30;;;1.50;;
40637;SDS011;26336;44.696;10.622;2022-08-23T00:50:24;2.08;;;1.40;;
40637;SDS011;26336;44.696;10.622;2022-08-23T00:53:45;2.80;;;1.60;;
40637;SDS011;26336;44.696;10.622;2022-08-23T00:56:52;1.60;;;1.50;;
40637;SDS011;26336;44.696;10.622;2022-08-23T00:59:58;4.30;;;1.33;;
40637;SDS011;26336;44.696;10.622;2022-08-23T01:03:02;2.00;;;1.38;;
40637;SDS011;26336;44.696;10.622;2022-08-23T01:06:14;2.45;;;1.25;;
40637;SDS011;26336;44.696;10.622;2022-08-23T01:09:22;1.30;;;1.10;;
40637;SDS011;26336;44.696;10.622;2022-08-23T01:12:28;2.88;;;1.25;;
40637;SDS011;26336;44.696;10.622;2022-08-23T01:15:41;1.90;;;0.95;;
40637;SDS011;26336;44.696;10.622;2022-08-23T01:18:51;1.40;;;1.30;;
40637;SDS011;26336;44.696;10.622;2022-08-23T01:25:22;2.67;;;1.20;;
40637;SDS011;26336;44.696;10.622;2022-08-23T01:28:29;4.20;;;1.63;;
40637;SDS011;26336;44.696;10.622;2022-08-23T01:31:33;3.67;;;2.22;;
40637;SDS011;26336;44.696;10.622;2022-08-23T01:34:38;3.20;;;2.55;;
40637;SDS011;26336;44.696;10.622;2022-08-23T01:37:43;4.72;;;2.42;;
40637;SDS011;26336;44.696;10.622;2022-08-23T01:40:48;7.75;;;3.65;;
40637;SDS011;26336;44.696;10.622;2022-08-23T01:43:52;3.38;;;2.85;;
40637;SDS011;26336;44.696;10.622;2022-08-23T01:46:58;3.10;;;2.72;;
40637;SDS011;26336;44.696;10.622;2022-08-23T01:50:03;3.45;;;2.60;;
40637;SDS011;26336;44.696;10.622;2022-08-23T01:53:08;3.13;;;2.35;;
40637;SDS011;26336;44.696;10.622;2022-08-23T01:56:13;3.78;;;2.38;;
40637;SDS011;26336;44.696;10.622;2022-08-23T01:59:18;3.28;;;2.20;;
40637;SDS011;26336;44.696;10.622;2022-08-23T02:02:25;5.25;;;2.33;;
40637;SDS011;26336;44.696;10.622;2022-08-23T02:05:29;4.90;;;2.95;;
40637;SDS011;26336;44.696;10.622;2022-08-23T02:08:34;5.82;;;2.42;;
40637;SDS011;26336;44.696;10.622;2022-08-23T02:11:59;3.05;;;1.88;;
40637;SDS011;26336;44.696;10.622;2022-08-23T02:15:05;4.15;;;2.40;;
40637;SDS011;26336;44.696;10.622;2022-08-23T02:18:11;3.15;;;2.28;;
40637;SDS011;26336;44.696;10.622;2022-08-23T02:21:16;4.15;;;2.22;;
40637;SDS011;26336;44.696;10.622;2022-08-23T02:24:21;3.63;;;2.30;;
40637;SDS011;26336;44.696;10.622;2022-08-23T02:27:26;3.20;;;2.33;;
40637;SDS011;26336;44.696;10.622;2022-08-23T02:30:32;2.42;;;2.22;;
40637;SDS011;26336;44.696;10.622;2022-08-23T02:33:37;3.50;;;2.10;;
40637;SDS011;26336;44.696;10.622;2022-08-23T02:36:41;2.67;;;2.08;;
40637;SDS011;26336;44.696;10.622;2022-08-23T02:39:46;3.58;;;2.30;;
40637;SDS011;26336;44.696;10.622;2022-08-23T02:42:50;2.95;;;2.20;;
40637;SDS011;26336;44.696;10.622;2022-08-23T02:45:55;2.85;;;1.80;;
40637;SDS011;26336;44.696;10.622;2022-08-23T02:48:59;2.60;;;2.25;;
40637;SDS011;26336;44.696;10.622;2022-08-23T02:52:04;3.28;;;2.03;;
40637;SDS011;26336;44.696;10.622;2022-08-23T02:55:09;3.20;;;1.98;;
40637;SDS011;26336;44.696;10.622;2022-08-23T02:58:13;3.38;;;2.10;;
40637;SDS011;26336;44.696;10.622;2022-08-23T03:01:18;2.58;;;2.30;;
40637;SDS011;26336;44.696;10.622;2022-08-23T03:04:26;3.35;;;2.30;;
40637;SDS011;26336;44.696;10.622;2022-08-23T03:07:31;2.30;;;2.10;;
40637;SDS011;26336;44.696;10.622;2022-08-23T03:10:35;5.80;;;2.00;;
40637;SDS011;26336;44.696;10.622;2022-08-23T03:13:41;4.28;;;2.88;;
40637;SDS011;26336;44.696;10.622;2022-08-23T03:16:45;2.47;;;2.28;;
40637;SDS011;26336;44.696;10.622;2022-08-23T03:19:49;2.05;;;1.85;;
40637;SDS011;26336;44.696;10.622;2022-08-23T03:22:54;2.20;;;2.00;;
40637;SDS011;26336;44.696;10.622;2022-08-23T03:26:01;5.88;;;2.30;;
40637;SDS011;26336;44.696;10.622;2022-08-23T03:29:08;4.25;;;2.55;;
40637;SDS011;26336;44.696;10.622;2022-08-23T03:32:26;3.15;;;2.47;;
40637;SDS011;26336;44.696;10.622;2022-08-23T03:35:30;3.20;;;2.45;;
40637;SDS011;26336;44.696;10.622;2022-08-23T03:38:34;2.45;;;2.10;;
40637;SDS011;26336;44.696;10.622;2022-08-23T03:41:41;3.72;;;2.63;;
40637;SDS011;26336;44.696;10.622;2022-08-23T03:44:49;2.40;;;2.20;;
40637;SDS011;26336;44.696;10.622;2022-08-23T03:47:53;2.80;;;2.60;;
40637;SDS011;26336;44.696;10.622;2022-08-23T03:50:57;2.95;;;2.65;;
40637;SDS011;26336;44.696;10.622;2022-08-23T03:54:03;4.22;;;2.50;;
40637;SDS011;26336;44.696;10.622;2022-08-23T03:57:08;3.20;;;2.83;;
40637;SDS011;26336;44.696;10.622;2022-08-23T04:00:15;3.53;;;2.38;;
40637;SDS011;26336;44.696;10.622;2022-08-23T04:03:20;5.00;;;2.92;;
40637;SDS011;26336;44.696;10.622;2022-08-23T04:06:38;3.03;;;2.67;;
40637;SDS011;26336;44.696;10.622;2022-08-23T04:09:42;3.28;;;2.53;;
40637;SDS011;26336;44.696;10.622;2022-08-23T04:12:47;4.85;;;2.78;;
40637;SDS011;26336;44.696;10.622;2022-08-23T04:15:55;2.50;;;2.10;;
40637;SDS011;26336;44.696;10.622;2022-08-23T04:18:59;2.95;;;2.20;;
40637;SDS011;26336;44.696;10.622;2022-08-23T04:22:06;4.05;;;2.35;;
40637;SDS011;26336;44.696;10.622;2022-08-23T04:25:16;3.83;;;3.17;;
40637;SDS011;26336;44.696;10.622;2022-08-23T04:28:22;2.70;;;2.50;;
40637;SDS011;26336;44.696;10.622;2022-08-23T04:31:29;5.90;;;2.58;;
40637;SDS011;26336;44.696;10.622;2022-08-23T04:34:35;4.65;;;2.50;;
40637;SDS011;26336;44.696;10.622;2022-08-23T04:37:42;4.55;;;2.50;;
40637;SDS011;26336;44.696;10.622;2022-08-23T04:40:47;4.15;;;2.50;;
40637;SDS011;26336;44.696;10.622;2022-08-23T04:44:11;5.72;;;2.65;;
40637;SDS011;26336;44.696;10.622;2022-08-23T04:47:17;5.95;;;3.08;;
40637;SDS011;26336;44.696;10.622;2022-08-23T04:50:22;4.95;;;2.88;;
40637;SDS011;26336;44.696;10.622;2022-08-23T04:53:49;3.05;;;2.28;;
40637;SDS011;26336;44.696;10.622;2022-08-23T04:57:19;5.00;;;2.53;;
40637;SDS011;26336;44.696;10.622;2022-08-23T05:00:25;4.32;;;2.92;;
40637;SDS011;26336;44.696;10.622;2022-08-23T05:03:32;7.47;;;2.88;;
40637;SDS011;26336;44.696;10.622;2022-08-23T05:06:36;2.97;;;2.20;;
40637;SDS011;26336;44.696;10.622;2022-08-23T05:09:41;2.85;;;2.15;;
40637;SDS011;26336;44.696;10.622;2022-08-23T05:12:46;2.90;;;2.30;;
40637;SDS011;26336;44.696;10.622;2022-08-23T05:15:52;2.17;;;1.95;;
40637;SDS011;26336;44.696;10.622;2022-08-23T05:18:59;2.92;;;1.90;;
40637;SDS011;26336;44.696;10.622;2022-08-23T05:22:03;2.70;;;1.65;;
40637;SDS011;26336;44.696;10.622;2022-08-23T05:25:28;2.55;;;1.90;;
40637;SDS011;26336;44.696;10.622;2022-08-23T05:28:53;2.17;;;1.73;;
40637;SDS011;26336;44.696;10.622;2022-08-23T05:32:02;2.47;;;1.90;;
40637;SDS011;26336;44.696;10.622;2022-08-23T05:35:07;4.30;;;1.75;;
40637;SDS011;26336;44.696;10.622;2022-08-23T05:38:13;3.08;;;1.88;;
40637;SDS011;26336;44.696;10.622;2022-08-23T05:41:19;3.90;;;1.83;;
40637;SDS011;26336;44.696;10.622;2022-08-23T05:44:24;1.85;;;1.60;;
40637;SDS011;26336;44.696;10.622;2022-08-23T05:47:28;2.70;;;1.70;;
40637;SDS011;26336;44.696;10.622;2022-08-23T05:50:45;3.70;;;1.70;;
40637;SDS011;26336;44.696;10.622;2022-08-23T05:53:51;2.90;;;1.55;;
40637;SDS011;26336;44.696;10.622;2022-08-23T05:56:57;5.18;;;1.90;;
40637;SDS011;26336;44.696;10.622;2022-08-23T06:00:03;2.72;;;1.60;;
40637;SDS011;26336;44.696;10.622;2022-08-23T06:03:10;4.55;;;1.70;;
40637;SDS011;26336;44.696;10.622;2022-08-23T06:06:15;4.55;;;1.70;;
40637;SDS011;26336;44.696;10.622;2022-08-23T06:09:20;3.88;;;1.85;;
40637;SDS011;26336;44.696;10.622;2022-08-23T06:12:24;2.95;;;1.85;;
40637;SDS011;26336;44.696;10.622;2022-08-23T06:15:29;4.60;;;2.60;;
40637;SDS011;26336;44.696;10.622;2022-08-23T06:18:35;2.78;;;2.20;;
40637;SDS011;26336;44.696;10.622;2022-08-23T06:21:56;2.65;;;2.38;;
40637;SDS011;26336;44.696;10.622;2022-08-23T06:25:04;3.65;;;2.83;;
40637;SDS011;26336;44.696;10.622;2022-08-23T06:28:41;4.13;;;2.72;;
40637;SDS011;26336;44.696;10.622;2022-08-23T06:31:49;2.72;;;2.53;;
40637;SDS011;26336;44.696;10.622;2022-08-23T06:35:06;3.00;;;2.45;;
40637;SDS011;26336;44.696;10.622;2022-08-23T06:38:27;2.92;;;1.77;;
40637;SDS011;26336;44.696;10.622;2022-08-23T06:41:59;6.70;;;1.92;;
40637;SDS011;26336;44.696;10.622;2022-08-23T06:45:16;4.85;;;1.90;;
40637;SDS011;26336;44.696;10.622;2022-08-23T06:48:24;2.35;;;1.58;;
40637;SDS011;26336;44.696;10.622;2022-08-23T06:51:29;3.30;;;1.60;;
40637;SDS011;26336;44.696;10.622;2022-08-23T06:54:52;2.72;;;1.63;;
40637;SDS011;26336;44.696;10.622;2022-08-23T06:58:08;2.67;;;1.80;;
40637;SDS011;26336;44.696;10.622;2022-08-23T07:05:03;1.92;;;1.58;;
40637;SDS011;26336;44.696;10.622;2022-08-23T07:08:33;4.90;;;1.60;;
40637;SDS011;26336;44.696;10.622;2022-08-23T07:11:38;6.20;;;2.58;;
40637;SDS011;26336;44.696;10.622;2022-08-23T07:14:42;2.97;;;1.83;;
40637;SDS011;26336;44.696;10.622;2022-08-23T07:17:47;3.60;;;2.42;;
40637;SDS011;26336;44.696;10.622;2022-08-23T07:20:57;3.47;;;2.30;;
40637;SDS011;26336;44.696;10.622;2022-08-23T07:24:03;3.08;;;2.55;;
40637;SDS011;26336;44.696;10.622;2022-08-23T07:27:08;7.30;;;2.00;;
40637;SDS011;26336;44.696;10.622;2022-08-23T07:30:22;5.43;;;2.47;;
40637;SDS011;26336;44.696;10.622;2022-08-23T07:33:30;2.40;;;2.17;;
40637;SDS011;26336;44.696;10.622;2022-08-23T07:36:56;4.10;;;2.17;;
40637;SDS011;26336;44.696;10.622;2022-08-23T07:40:00;2.80;;;2.50;;
40637;SDS011;26336;44.696;10.622;2022-08-23T07:43:07;5.05;;;2.67;;
40637;SDS011;26336;44.696;10.622;2022-08-23T07:46:12;6.53;;;2.83;;
40637;SDS011;26336;44.696;10.622;2022-08-23T07:49:17;5.05;;;2.92;;
40637;SDS011;26336;44.696;10.622;2022-08-23T07:52:23;4.38;;;2.75;;
40637;SDS011;26336;44.696;10.622;2022-08-23T07:55:27;2.70;;;2.30;;
40637;SDS011;26336;44.696;10.622;2022-08-23T07:59:06;4.13;;;3.28;;
40637;SDS011;26336;44.696;10.622;2022-08-23T08:02:31;4.53;;;3.05;;
40637;SDS011;26336;44.696;10.622;2022-08-23T08:05:36;4.18;;;2.78;;
40637;SDS011;26336;44.696;10.622;2022-08-23T08:08:41;4.30;;;3.00;;
40637;SDS011;26336;44.696;10.622;2022-08-23T08:12:00;3.47;;;3.17;;
40637;SDS011;26336;44.696;10.622;2022-08-23T08:15:07;3.65;;;2.70;;
40637;SDS011;26336;44.696;10.622;2022-08-23T08:18:15;6.97;;;3.83;;
40637;SDS011;26336;44.696;10.622;2022-08-23T08:21:38;3.88;;;3.58;;
40637;SDS011;26336;44.696;10.622;2022-08-23T08:24:54;7.00;;;3.53;;
40637;SDS011;26336;44.696;10.622;2022-08-23T08:27:58;4.13;;;3.28;;
40637;SDS011;26336;44.696;10.622;2022-08-23T08:31:03;8.45;;;4.20;;
40637;SDS011;26336;44.696;10.622;2022-08-23T08:34:08;4.30;;;3.70;;
40637;SDS011;26336;44.696;10.622;2022-08-23T08:37:12;5.68;;;3.97;;
40637;SDS011;26336;44.696;10.622;2022-08-23T08:40:19;7.72;;;4.40;;
40637;SDS011;26336;44.696;10.622;2022-08-23T08:46:45;6.45;;;4.35;;
40637;SDS011;26336;44.696;10.622;2022-08-23T08:49:56;5.65;;;4.07;;
40637;SDS011;26336;44.696;10.622;2022-08-23T08:53:21;4.95;;;4.05;;
40637;SDS011;26336;44.696;10.622;2022-08-23T08:56:36;6.60;;;3.38;;
40637;SDS011;26336;44.696;10.622;2022-08-23T08:59:58;4.80;;;4.13;;
40637;SDS011;26336;44.696;10.622;2022-08-23T09:03:11;4.93;;;4.32;;
40637;SDS011;26336;44.696;10.622;2022-08-23T09:06:29;6.10;;;4.57;;
40637;SDS011;26336;44.696;10.622;2022-08-23T09:16:52;6.07;;;4.05;;
40637;SDS011;26336;44.696;10.622;2022-08-23T09:19:57;7.43;;;4.25;;
40637;SDS011;26336;44.696;10.622;2022-08-23T09:23:16;4.80;;;4.30;;
40637;SDS011;26336;44.696;10.622;2022-08-23T09:26:28;6.38;;;5.70;;
40637;SDS011;26336;44.696;10.622;2022-08-23T09:29:34;5.35;;;4.57;;
40637;SDS011;26336;44.696;10.622;2022-08-23T09:32:41;6.50;;;4.78;;
40637;SDS011;26336;44.696;10.622;2022-08-23T09:36:01;6.90;;;4.13;;
40637;SDS011;26336;44.696;10.622;2022-08-23T09:39:12;6.25;;;5.13;;
40637;SDS011;26336;44.696;10.622;2022-08-23T09:42:30;9.63;;;4.50;;
40637;SDS011;26336;44.696;10.622;2022-08-23T09:45:51;6.30;;;4.80;;
40637;SDS011;26336;44.696;10.622;2022-08-23T09:49:23;5.10;;;4.60;;
40637;SDS011;26336;44.696;10.622;2022-08-23T09:52:46;5.40;;;4.53;;
40637;SDS011;26336;44.696;10.622;2022-08-23T09:55:51;4.75;;;4.10;;
40637;SDS011;26336;44.696;10.622;2022-08-23T09:58:58;5.43;;;4.07;;
40637;SDS011;26336;44.696;10.622;2022-08-23T10:05:35;5.40;;;4.60;;
40637;SDS011;26336;44.696;10.622;2022-08-23T10:08:52;7.80;;;5.22;;
40637;SDS011;26336;44.696;10.622;2022-08-23T10:12:03;7.07;;;5.40;;
40637;SDS011;26336;44.696;10.622;2022-08-23T10:15:08;7.10;;;3.78;;
40637;SDS011;26336;44.696;10.622;2022-08-23T10:21:41;5.90;;;4.97;;
40637;SDS011;26336;44.696;10.622;2022-08-23T10:24:54;5.75;;;3.50;;
40637;SDS011;26336;44.696;10.622;2022-08-23T10:32:00;3.58;;;2.42;;
40637;SDS011;26336;44.696;10.622;2022-08-23T10:38:57;6.38;;;1.92;;
40637;SDS011;26336;44.696;10.622;2022-08-23T10:42:39;3.20;;;1.90;;
40637;SDS011;26336;44.696;10.622;2022-08-23T10:45:35;7.97;;;1.98;;
40637;SDS011;26336;44.696;10.622;2022-08-23T10:48:53;3.42;;;1.60;;
40637;SDS011;26336;44.696;10.622;2022-08-23T10:52:03;4.00;;;2.63;;
40637;SDS011;26336;44.696;10.622;2022-08-23T10:55:17;3.65;;;2.90;;
40637;SDS011;26336;44.696;10.622;2022-08-23T10:58:48;4.28;;;2.83;;
40637;SDS011;26336;44.696;10.622;2022-08-23T11:08:34;2.45;;;2.13;;
40637;SDS011;26336;44.696;10.622;2022-08-23T11:15:36;4.68;;;2.42;;
40637;SDS011;26336;44.696;10.622;2022-08-23T11:19:03;4.78;;;2.58;;
40637;SDS011;26336;44.696;10.622;2022-08-23T11:22:15;3.10;;;2.78;;
40637;SDS011;26336;44.696;10.622;2022-08-23T11:31:32;4.20;;;2.55;;
40637;SDS011;26336;44.696;10.622;2022-08-23T11:44:59;4.03;;;2.78;;
40637;SDS011;26336;44.696;10.622;2022-08-23T11:55:00;2.88;;;2.00;;
40637;SDS011;26336;44.696;10.622;2022-08-23T11:58:14;2.10;;;1.70;;
40637;SDS011;26336;44.696;10.622;2022-08-23T12:01:42;2.13;;;1.80;;
40637;SDS011;26336;44.696;10.622;2022-08-23T12:04:49;3.45;;;2.05;;
40637;SDS011;26336;44.696;10.622;2022-08-23T12:11:07;6.55;;;2.03;;
40637;SDS011;26336;44.696;10.622;2022-08-23T12:20:42;4.03;;;2.00;;
40637;SDS011;26336;44.696;10.622;2022-08-23T12:23:53;2.67;;;2.00;;
40637;SDS011;26336;44.696;10.622;2022-08-23T12:34:11;2.22;;;1.70;;
40637;SDS011;26336;44.696;10.622;2022-08-23T12:40:48;1.52;;;1.42;;
40637;SDS011;26336;44.696;10.622;2022-08-23T12:43:57;2.78;;;1.50;;
40637;SDS011;26336;44.696;10.622;2022-08-23T12:47:18;1.92;;;1.50;;
40637;SDS011;26336;44.696;10.622;2022-08-23T12:50:25;1.70;;;1.27;;
40637;SDS011;26336;44.696;10.622;2022-08-23T12:53:36;2.90;;;1.50;;
40637;SDS011;26336;44.696;10.622;2022-08-23T12:56:43;1.40;;;1.30;;
40637;SDS011;26336;44.696;10.622;2022-08-23T13:03:27;3.28;;;1.92;;
40637;SDS011;26336;44.696;10.622;2022-08-23T13:06:41;1.65;;;1.05;;
40637;SDS011;26336;44.696;10.622;2022-08-23T13:09:49;2.33;;;1.13;;
40637;SDS011;26336;44.696;10.622;2022-08-23T13:12:54;1.67;;;1.10;;
40637;SDS011;26336;44.696;10.622;2022-08-23T13:15:59;4.63;;;1.35;;
40637;SDS011;26336;44.696;10.622;2022-08-23T13:19:13;4.72;;;0.95;;
40637;SDS011;26336;44.696;10.622;2022-08-23T13:22:26;1.20;;;0.90;;
40637;SDS011;26336;44.696;10.622;2022-08-23T13:25:34;1.52;;;1.30;;
40637;SDS011;26336;44.696;10.622;2022-08-23T13:28:40;1.67;;;1.10;;
40637;SDS011;26336;44.696;10.622;2022-08-23T13:32:22;2.03;;;1.20;;
40637;SDS011;26336;44.696;10.622;2022-08-23T13:35:44;1.77;;;1.30;;
40637;SDS011;26336;44.696;10.622;2022-08-23T13:38:49;1.30;;;1.10;;
40637;SDS011;26336;44.696;10.622;2022-08-23T13:41:53;2.97;;;1.05;;
40637;SDS011;26336;44.696;10.622;2022-08-23T13:45:05;3.30;;;1.60;;
40637;SDS011;26336;44.696;10.622;2022-08-23T13:51:32;2.03;;;0.93;;
40637;SDS011;26336;44.696;10.622;2022-08-23T13:54:39;3.38;;;1.70;;
40637;SDS011;26336;44.696;10.622;2022-08-23T13:57:42;3.03;;;1.40;;
40637;SDS011;26336;44.696;10.622;2022-08-23T14:00:46;2.03;;;1.20;;
40637;SDS011;26336;44.696;10.622;2022-08-23T14:03:50;2.33;;;1.35;;
40637;SDS011;26336;44.696;10.622;2022-08-23T14:06:55;1.13;;;1.02;;
40637;SDS011;26336;44.696;10.622;2022-08-23T14:09:59;2.00;;;1.50;;
40637;SDS011;26336;44.696;10.622;2022-08-23T14:13:03;2.33;;;1.38;;
40637;SDS011;26336;44.696;10.622;2022-08-23T14:16:10;3.05;;;1.33;;
40637;SDS011;26336;44.696;10.622;2022-08-23T14:19:20;1.25;;;0.95;;
40637;SDS011;26336;44.696;10.622;2022-08-23T14:22:25;2.22;;;1.00;;
40637;SDS011;26336;44.696;10.622;2022-08-23T14:25:29;2.60;;;1.10;;
40637;SDS011;26336;44.696;10.622;2022-08-23T14:28:33;1.83;;;0.90;;
40637;SDS011;26336;44.696;10.622;2022-08-23T14:31:38;5.30;;;1.15;;
40637;SDS011;26336;44.696;10.622;2022-08-23T14:34:42;1.80;;;1.00;;
40637;SDS011;26336;44.696;10.622;2022-08-23T14:37:46;2.28;;;1.38;;
40637;SDS011;26336;44.696;10.622;2022-08-23T14:40:51;2.30;;;0.88;;
40637;SDS011;26336;44.696;10.622;2022-08-23T14:44:05;4.10;;;1.20;;
40637;SDS011;26336;44.696;10.622;2022-08-23T14:47:10;1.83;;;1.20;;
40637;SDS011;26336;44.696;10.622;2022-08-23T14:50:14;1.73;;;1.10;;
40637;SDS011;26336;44.696;10.622;2022-08-23T14:53:22;0.73;;;0.73;;
40637;SDS011;26336;44.696;10.622;2022-08-23T14:56:30;3.08;;;1.13;;
40637;SDS011;26336;44.696;10.622;2022-08-23T14:59:36;2.15;;;0.95;;
40637;SDS011;26336;44.696;10.622;2022-08-23T15:02:44;1.98;;;1.40;;
40637;SDS011;26336;44.696;10.622;2022-08-23T15:05:52;6.32;;;1.20;;
40637;SDS011;26336;44.696;10.622;2022-08-23T15:08:56;2.00;;;0.90;;
40637;SDS011;26336;44.696;10.622;2022-08-23T15:12:00;2.53;;;1.13;;
40637;SDS011;26336;44.696;10.622;2022-08-23T15:15:06;2.58;;;1.00;;
40637;SDS011;26336;44.696;10.622;2022-08-23T15:18:16;0.85;;;0.80;;
40637;SDS011;26336;44.696;10.622;2022-08-23T15:21:21;2.05;;;0.82;;
40637;SDS011;26336;44.696;10.622;2022-08-23T15:24:25;1.15;;;0.85;;
40637;SDS011;26336;44.696;10.622;2022-08-23T15:27:30;3.15;;;1.00;;
40637;SDS011;26336;44.696;10.622;2022-08-23T15:30:34;3.60;;;0.90;;
40637;SDS011;26336;44.696;10.622;2022-08-23T15:33:38;1.40;;;0.98;;
40637;SDS011;26336;44.696;10.622;2022-08-23T15:36:42;3.03;;;0.80;;
40637;SDS011;26336;44.696;10.622;2022-08-23T15:39:47;1.48;;;0.90;;
40637;SDS011;26336;44.696;10.622;2022-08-23T15:42:51;1.70;;;0.90;;
40637;SDS011;26336;44.696;10.622;2022-08-23T15:45:56;1.00;;;0.90;;
40637;SDS011;26336;44.696;10.622;2022-08-23T15:49:03;3.30;;;0.95;;
40637;SDS011;26336;44.696;10.622;2022-08-23T15:52:13;2.40;;;0.90;;
40637;SDS011;26336;44.696;10.622;2022-08-23T15:55:17;1.63;;;0.63;;
40637;SDS011;26336;44.696;10.622;2022-08-23T15:58:24;3.58;;;0.90;;
40637;SDS011;26336;44.696;10.622;2022-08-23T16:01:29;2.53;;;1.10;;
40637;SDS011;26336;44.696;10.622;2022-08-23T16:04:35;1.00;;;0.85;;
40637;SDS011;26336;44.696;10.622;2022-08-23T16:07:40;2.60;;;0.93;;
40637;SDS011;26336;44.696;10.622;2022-08-23T16:10:45;2.80;;;1.23;;
40637;SDS011;26336;44.696;10.622;2022-08-23T16:13:49;2.92;;;1.23;;
40637;SDS011;26336;44.696;10.622;2022-08-23T16:16:54;3.92;;;1.30;;
40637;SDS011;26336;44.696;10.622;2022-08-23T16:19:58;2.00;;;1.15;;
40637;SDS011;26336;44.696;10.622;2022-08-23T16:23:02;2.65;;;1.17;;
40637;SDS011;26336;44.696;10.622;2022-08-23T16:26:14;2.78;;;0.73;;
40637;SDS011;26336;44.696;10.622;2022-08-23T16:29:20;1.63;;;0.98;;
40637;SDS011;26336;44.696;10.622;2022-08-23T16:32:25;3.28;;;1.13;;
40637;SDS011;26336;44.696;10.622;2022-08-23T16:35:29;3.17;;;0.90;;
40637;SDS011;26336;44.696;10.622;2022-08-23T16:38:33;2.70;;;0.90;;
40637;SDS011;26336;44.696;10.622;2022-08-23T16:41:38;1.23;;;0.80;;
40637;SDS011;26336;44.696;10.622;2022-08-23T16:44:42;3.85;;;1.08;;
40637;SDS011;26336;44.696;10.622;2022-08-23T16:47:46;1.10;;;0.80;;
40637;SDS011;26336;44.696;10.622;2022-08-23T16:50:53;1.50;;;0.90;;
40637;SDS011;26336;44.696;10.622;2022-08-23T16:53:57;1.77;;;0.93;;
40637;SDS011;26336;44.696;10.622;2022-08-23T16:57:01;1.58;;;0.70;;
40637;SDS011;26336;44.696;10.622;2022-08-23T17:00:07;2.33;;;0.82;;
40637;SDS011;26336;44.696;10.622;2022-08-23T17:03:16;3.17;;;1.08;;
40637;SDS011;26336;44.696;10.622;2022-08-23T17:06:21;2.25;;;1.00;;
40637;SDS011;26336;44.696;10.622;2022-08-23T17:09:26;4.47;;;1.27;;
40637;SDS011;26336;44.696;10.622;2022-08-23T17:12:31;1.77;;;1.20;;
40637;SDS011;26336;44.696;10.622;2022-08-23T17:15:38;4.57;;;1.00;;
40637;SDS011;26336;44.696;10.622;2022-08-23T17:18:43;2.55;;;1.13;;
40637;SDS011;26336;44.696;10.622;2022-08-23T17:21:48;4.80;;;1.05;;
40637;SDS011;26336;44.696;10.622;2022-08-23T17:24:52;1.55;;;0.85;;
40637;SDS011;26336;44.696;10.622;2022-08-23T17:27:56;1.80;;;0.85;;
40637;SDS011;26336;44.696;10.622;2022-08-23T17:31:00;2.42;;;1.00;;
40637;SDS011;26336;44.696;10.622;2022-08-23T17:34:05;2.58;;;0.70;;
40637;SDS011;26336;44.696;10.622;2022-08-23T17:37:14;2.97;;;1.10;;
40637;SDS011;26336;44.696;10.622;2022-08-23T17:40:26;3.53;;;1.00;;
40637;SDS011;26336;44.696;10.622;2022-08-23T17:43:32;3.45;;;0.90;;
40637;SDS011;26336;44.696;10.622;2022-08-23T17:46:37;1.65;;;1.00;;
40637;SDS011;26336;44.696;10.622;2022-08-23T17:49:44;1.48;;;0.88;;
40637;SDS011;26336;44.696;10.622;2022-08-23T17:52:50;3.08;;;0.80;;
40637;SDS011;26336;44.696;10.622;2022-08-23T17:55:54;1.05;;;0.93;;
40637;SDS011;26336;44.696;10.622;2022-08-23T17:58:58;3.33;;;1.27;;
40637;SDS011;26336;44.696;10.622;2022-08-23T18:02:02;5.53;;;1.10;;
40637;SDS011;26336;44.696;10.622;2022-08-23T18:05:07;3.47;;;0.93;;
40637;SDS011;26336;44.696;10.622;2022-08-23T18:08:13;2.47;;;0.98;;
40637;SDS011;26336;44.696;10.622;2022-08-23T18:11:17;3.45;;;1.30;;
40637;SDS011;26336;44.696;10.622;2022-08-23T18:14:21;2.08;;;1.00;;
40637;SDS011;26336;44.696;10.622;2022-08-23T18:17:25;1.67;;;1.13;;
40637;SDS011;26336;44.696;10.622;2022-08-23T18:20:29;1.77;;;1.10;;
40637;SDS011;26336;44.696;10.622;2022-08-23T18:23:33;4.32;;;1.48;;
40637;SDS011;26336;44.696;10.622;2022-08-23T18:26:38;3.78;;;1.33;;
40637;SDS011;26336;44.696;10.622;2022-08-23T18:30:00;4.18;;;1.25;;
40637;SDS011;26336;44.696;10.622;2022-08-23T18:33:06;1.95;;;1.10;;
40637;SDS011;26336;44.696;10.622;2022-08-23T18:36:10;3.10;;;1.52;;
40637;SDS011;26336;44.696;10.622;2022-08-23T18:39:14;3.97;;;1.38;;
40637;SDS011;26336;44.696;10.622;2022-08-23T18:42:19;1.95;;;1.15;;
40637;SDS011;26336;44.696;10.622;2022-08-23T18:45:23;4.68;;;1.30;;
40637;SDS011;26336;44.696;10.622;2022-08-23T18:48:27;4.47;;;1.20;;
40637;SDS011;26336;44.696;10.622;2022-08-23T18:51:32;2.03;;;1.10;;
40637;SDS011;26336;44.696;10.622;2022-08-23T18:54:35;2.63;;;0.98;;
40637;SDS011;26336;44.696;10.622;2022-08-23T18:57:39;3.38;;;1.27;;
40637;SDS011;26336;44.696;10.622;2022-08-23T19:00:45;7.97;;;1.67;;
40637;SDS011;26336;44.696;10.622;2022-08-23T19:03:50;2.78;;;1.00;;
40637;SDS011;26336;44.696;10.622;2022-08-23T19:06:55;3.38;;;1.20;;
40637;SDS011;26336;44.696;10.622;2022-08-23T19:10:00;3.80;;;1.63;;
40637;SDS011;26336;44.696;10.622;2022-08-23T19:13:05;1.95;;;1.27;;
40637;SDS011;26336;44.696;10.622;2022-08-23T19:16:11;4.45;;;1.85;;
40637;SDS011;26336;44.696;10.622;2022-08-23T19:19:16;1.38;;;0.80;;
40637;SDS011;26336;44.696;10.622;2022-08-23T19:22:20;2.25;;;1.20;;
40637;SDS011;26336;44.696;10.622;2022-08-23T19:25:25;2.08;;;1.10;;
40637;SDS011;26336;44.696;10.622;2022-08-23T19:28:29;1.83;;;0.85;;
40637;SDS011;26336;44.696;10.622;2022-08-23T19:31:36;2.47;;;0.90;;
40637;SDS011;26336;44.696;10.622;2022-08-23T19:34:44;0.93;;;0.55;;
40637;SDS011;26336;44.696;10.622;2022-08-23T19:37:48;3.00;;;1.20;;
40637;SDS011;26336;44.696;10.622;2022-08-23T19:40:53;1.58;;;0.90;;
40637;SDS011;26336;44.696;10.622;2022-08-23T19:43:57;2.88;;;0.90;;
40637;SDS011;26336;44.696;10.622;2022-08-23T19:47:02;2.40;;;0.73;;
40637;SDS011;26336;44.696;10.622;2022-08-23T19:50:07;2.38;;;1.05;;
40637;SDS011;26336;44.696;10.622;2022-08-23T19:53:12;1.75;;;1.05;;
40637;SDS011;26336;44.696;10.622;2022-08-23T19:56:16;2.25;;;0.98;;
40637;SDS011;26336;44.696;10.622;2022-08-23T19:59:22;1.52;;;0.73;;
40637;SDS011;26336;44.696;10.622;2022-08-23T20:02:29;3.78;;;1.20;;
40637;SDS011;26336;44.696;10.622;2022-08-23T20:05:33;1.40;;;1.00;;
40637;SDS011;26336;44.696;10.622;2022-08-23T20:08:37;2.28;;;0.80;;
40637;SDS011;26336;44.696;10.622;2022-08-23T20:11:41;2.00;;;0.85;;
40637;SDS011;26336;44.696;10.622;2022-08-23T20:14:45;2.15;;;0.93;;